sensor_id;sensor_type;location;lat;lon;timestamp;pressure;altitude;pressure_sealevel;temperature;humidity
41684;BME280;27369;52.030;4.586;2022-09-14T00:01:51;-20807.34;;;-144.41;100.00
41684;BME280;27369;52.030;4.586;2022-09-14T00:04:18;-20807.34;;;-144.41;100.00
41684;BME280;27369;52.030;4.586;2022-09-14T00:06:44;-20807.34;;;-144.41;100.00
41684;BME280;27369;52.030;4.586;2022-09-14T00:09:27;-20807.34;;;-144.41;100.00
41684;BME280;27369;52.030;4.586;2022-09-14T00:11:53;-20807.34;;;-144.41;100.00
41684;BME280;27369;52.030;4.586;2022-09-14T00:14:20;-20807.34;;;-144.41;100.00
41684;BME280;27369;52.030;4.586;2022-09-14T00:16:46;-20807.34;;;-144.41;100.00
41684;BME280;27369;52.030;4.586;2022-09-14T00:19:20;-20807.34;;;-144.41;100.00
41684;BME280;27369;52.030;4.586;2022-09-14T00:21:50;-20807.34;;;-144.41;100.00
41684;BME280;27369;52.030;4.586;2022-09-14T00:24:15;-20807.34;;;-144.41;100.00
41684;BME280;27369;52.030;4.586;2022-09-14T00:26:41;-20807.34;;;-144.41;100.00
41684;BME280;27369;52.030;4.586;2022-09-14T00:29:07;-20807.34;;;-144.41;100.00
41684;BME280;27369;52.030;4.586;2022-09-14T00:31:35;-20807.34;;;-144.41;100.00
41684;BME280;27369;52.030;4.586;2022-09-14T00:34:04;-20807.34;;;-144.41;100.00
41684;BME280;27369;52.030;4.586;2022-09-14T00:36:31;-20807.34;;;-144.41;100.00
41684;BME280;27369;52.030;4.586;2022-09-14T00:38:57;-20807.34;;;-144.41;100.00
41684;BME280;27369;52.030;4.586;2022-09-14T00:41:31;-20807.34;;;-144.41;100.00
41684;BME280;27369;52.030;4.586;2022-09-14T00:46:24;-20807.34;;;-144.41;100.00
41684;BME280;27369;52.030;4.586;2022-09-14T00:48:51;-20807.34;;;-144.41;100.00
41684;BME280;27369;52.030;4.586;2022-09-14T00:51:18;-20807.34;;;-144.41;100.00
41684;BME280;27369;52.030;4.586;2022-09-14T00:53:44;-20807.34;;;-144.41;100.00
41684;BME280;27369;52.030;4.586;2022-09-14T00:56:10;-20807.34;;;-144.41;100.00
41684;BME280;27369;52.030;4.586;2022-09-14T00:58:35;-20807.34;;;-144.41;100.00
41684;BME280;27369;52.030;4.586;2022-09-14T01:01:01;-20807.34;;;-144.41;100.00
41684;BME280;27369;52.030;4.586;2022-09-14T01:03:27;-20807.34;;;-144.41;100.00
41684;BME280;27369;52.030;4.586;2022-09-14T01:06:23;-20807.34;;;-144.41;100.00
41684;BME280;27369;52.030;4.586;2022-09-14T01:16:47;-20807.34;;;-144.41;100.00
41684;BME280;27369;52.030;4.586;2022-09-14T01:22:23;-20807.34;;;-144.41;100.00
41684;BME280;27369;52.030;4.586;2022-09-14T01:25:06;-20807.34;;;-144.41;100.00
41684;BME280;27369;52.030;4.586;2022-09-14T01:27:38;-20807.34;;;-144.41;100.00
41684;BME280;27369;52.030;4.586;2022-09-14T01:30:07;-20807.34;;;-144.41;100.00
41684;BME280;27369;52.030;4.586;2022-09-14T01:32:37;-20807.34;;;-144.41;100.00
41684;BME280;27369;52.030;4.586;2022-09-14T01:35:29;-20807.34;;;-144.41;100.00
41684;BME280;27369;52.030;4.586;2022-09-14T01:38:16;-20807.34;;;-144.41;100.00
41684;BME280;27369;52.030;4.586;2022-09-14T01:40:47;-20807.34;;;-144.41;100.00
41684;BME280;27369;52.030;4.586;2022-09-14T01:43:24;-20807.34;;;-144.41;100.00
41684;BME280;27369;52.030;4.586;2022-09-14T01:46:07;-20807.34;;;-144.41;100.00
41684;BME280;27369;52.030;4.586;2022-09-14T01:48:38;-20807.34;;;-144.41;100.00
41684;BME280;27369;52.030;4.586;2022-09-14T01:51:11;-20807.34;;;-144.41;100.00
41684;BME280;27369;52.030;4.586;2022-09-14T01:54:06;-20807.34;;;-144.41;100.00
41684;BME280;27369;52.030;4.586;2022-09-14T01:56:38;-20807.34;;;-144.41;100.00
41684;BME280;27369;52.030;4.586;2022-09-14T01:59:19;-20807.34;;;-144.41;100.00
41684;BME280;27369;52.030;4.586;2022-09-14T02:01:56;-20807.34;;;-144.41;100.00
41684;BME280;27369;52.030;4.586;2022-09-14T02:04:40;-20807.34;;;-144.41;100.00
41684;BME280;27369;52.030;4.586;2022-09-14T02:07:07;-20807.34;;;-144.41;100.00
41684;BME280;27369;52.030;4.586;2022-09-14T02:09:33;-20807.34;;;-144.41;100.00
41684;BME280;27369;52.030;4.586;2022-09-14T02:11:59;-20807.34;;;-144.41;100.00
41684;BME280;27369;52.030;4.586;2022-09-14T02:14:25;-20807.34;;;-144.41;100.00
41684;BME280;27369;52.030;4.586;2022-09-14T02:16:51;-20807.34;;;-144.41;100.00
41684;BME280;27369;52.030;4.586;2022-09-14T02:19:17;-20807.34;;;-144.41;100.00
41684;BME280;27369;52.030;4.586;2022-09-14T02:21:42;-20807.34;;;-144.41;100.00
41684;BME280;27369;52.030;4.586;2022-09-14T02:24:08;-20807.34;;;-144.41;100.00
41684;BME280;27369;52.030;4.586;2022-09-14T02:26:35;-20807.34;;;-144.41;100.00
41684;BME280;27369;52.030;4.586;2022-09-14T02:29:01;-20807.34;;;-144.41;100.00
41684;BME280;27369;52.030;4.586;2022-09-14T02:31:45;-20807.34;;;-144.41;100.00
41684;BME280;27369;52.030;4.586;2022-09-14T02:34:37;-20807.34;;;-144.41;100.00
41684;BME280;27369;52.030;4.586;2022-09-14T02:37:12;-20807.34;;;-144.41;100.00
41684;BME280;27369;52.030;4.586;2022-09-14T02:47:55;-20807.34;;;-144.41;100.00
41684;BME280;27369;52.030;4.586;2022-09-14T02:53:25;-20807.34;;;-144.41;100.00
41684;BME280;27369;52.030;4.586;2022-09-14T02:56:12;-20807.34;;;-144.41;100.00
41684;BME280;27369;52.030;4.586;2022-09-14T02:58:43;-20807.34;;;-144.41;100.00
41684;BME280;27369;52.030;4.586;2022-09-14T03:01:12;-20807.34;;;-144.41;100.00
41684;BME280;27369;52.030;4.586;2022-09-14T03:03:38;-20807.34;;;-144.41;100.00
41684;BME280;27369;52.030;4.586;2022-09-14T03:06:04;-20807.34;;;-144.41;100.00
41684;BME280;27369;52.030;4.586;2022-09-14T03:08:30;-20807.34;;;-144.41;100.00
41684;BME280;27369;52.030;4.586;2022-09-14T03:10:56;-20807.34;;;-144.41;100.00
41684;BME280;27369;52.030;4.586;2022-09-14T03:13:21;-20807.34;;;-144.41;100.00
41684;BME280;27369;52.030;4.586;2022-09-14T03:15:47;-20807.34;;;-144.41;100.00
41684;BME280;27369;52.030;4.586;2022-09-14T03:18:12;-20807.34;;;-144.41;100.00
41684;BME280;27369;52.030;4.586;2022-09-14T03:20:38;-20807.34;;;-144.41;100.00
41684;BME280;27369;52.030;4.586;2022-09-14T03:23:04;-20807.34;;;-144.41;100.00
41684;BME280;27369;52.030;4.586;2022-09-14T03:25:38;-20807.34;;;-144.41;100.00
41684;BME280;27369;52.030;4.586;2022-09-14T03:28:06;-20807.34;;;-144.41;100.00
41684;BME280;27369;52.030;4.586;2022-09-14T03:30:32;-20807.34;;;-144.41;100.00
41684;BME280;27369;52.030;4.586;2022-09-14T03:32:57;-20807.34;;;-144.41;100.00
41684;BME280;27369;52.030;4.586;2022-09-14T03:35:23;-20807.34;;;-144.41;100.00
41684;BME280;27369;52.030;4.586;2022-09-14T03:37:49;-20807.34;;;-144.41;100.00
41684;BME280;27369;52.030;4.586;2022-09-14T03:40:15;-20807.34;;;-144.41;100.00
41684;BME280;27369;52.030;4.586;2022-09-14T03:42:44;-20807.34;;;-144.41;100.00
41684;BME280;27369;52.030;4.586;2022-09-14T03:45:14;-20807.34;;;-144.41;100.00
41684;BME280;27369;52.030;4.586;2022-09-14T03:47:40;-20807.34;;;-144.41;100.00
41684;BME280;27369;52.030;4.586;2022-09-14T03:50:07;-20807.34;;;-144.41;100.00
41684;BME280;27369;52.030;4.586;2022-09-14T03:52:34;-20807.34;;;-144.41;100.00
41684;BME280;27369;52.030;4.586;2022-09-14T03:55:00;-20807.34;;;-144.41;100.00
41684;BME280;27369;52.030;4.586;2022-09-14T03:57:25;-20807.34;;;-144.41;100.00
41684;BME280;27369;52.030;4.586;2022-09-14T03:59:51;-20807.34;;;-144.41;100.00
41684;BME280;27369;52.030;4.586;2022-09-14T04:02:16;-20807.34;;;-144.41;100.00
41684;BME280;27369;52.030;4.586;2022-09-14T04:04:42;-20807.34;;;-144.41;100.00
41684;BME280;27369;52.030;4.586;2022-09-14T04:07:07;-20807.34;;;-144.41;100.00
41684;BME280;27369;52.030;4.586;2022-09-14T04:09:33;-20807.34;;;-144.41;100.00
41684;BME280;27369;52.030;4.586;2022-09-14T04:11:58;-20807.34;;;-144.41;100.00
41684;BME280;27369;52.030;4.586;2022-09-14T04:14:24;-20807.34;;;-144.41;100.00
41684;BME280;27369;52.030;4.586;2022-09-14T04:16:49;-20807.34;;;-144.41;100.00
41684;BME280;27369;52.030;4.586;2022-09-14T04:19:15;-20807.34;;;-144.41;100.00
41684;BME280;27369;52.030;4.586;2022-09-14T04:21:40;-20807.34;;;-144.41;100.00
41684;BME280;27369;52.030;4.586;2022-09-14T04:24:06;-20807.34;;;-144.41;100.00
41684;BME280;27369;52.030;4.586;2022-09-14T04:26:33;-20807.34;;;-144.41;100.00
41684;BME280;27369;52.030;4.586;2022-09-14T04:28:59;-20807.34;;;-144.41;100.00
41684;BME280;27369;52.030;4.586;2022-09-14T04:31:24;-20807.34;;;-144.41;100.00
41684;BME280;27369;52.030;4.586;2022-09-14T04:33:50;-20807.34;;;-144.41;100.00
41684;BME280;27369;52.030;4.586;2022-09-14T04:36:18;-20807.34;;;-144.41;100.00
41684;BME280;27369;52.030;4.586;2022-09-14T04:38:44;-20807.34;;;-144.41;100.00
41684;BME280;27369;52.030;4.586;2022-09-14T04:41:15;-20807.34;;;-144.41;100.00
41684;BME280;27369;52.030;4.586;2022-09-14T04:43:42;-20807.34;;;-144.41;100.00
41684;BME280;27369;52.030;4.586;2022-09-14T04:46:14;-20807.34;;;-144.41;100.00
41684;BME280;27369;52.030;4.586;2022-09-14T04:48:39;-20807.34;;;-144.41;100.00
41684;BME280;27369;52.030;4.586;2022-09-14T04:51:14;-20807.34;;;-144.41;100.00
41684;BME280;27369;52.030;4.586;2022-09-14T04:53:44;-20807.34;;;-144.41;100.00
41684;BME280;27369;52.030;4.586;2022-09-14T04:56:10;-20807.34;;;-144.41;100.00
41684;BME280;27369;52.030;4.586;2022-09-14T04:58:38;-20807.34;;;-144.41;100.00
41684;BME280;27369;52.030;4.586;2022-09-14T05:01:07;-20807.34;;;-144.41;100.00
41684;BME280;27369;52.030;4.586;2022-09-14T05:03:34;-20807.34;;;-144.41;100.00
41684;BME280;27369;52.030;4.586;2022-09-14T05:06:05;-20807.34;;;-144.41;100.00
41684;BME280;27369;52.030;4.586;2022-09-14T05:08:32;-20807.34;;;-144.41;100.00
41684;BME280;27369;52.030;4.586;2022-09-14T05:10:57;-20807.34;;;-144.41;100.00
41684;BME280;27369;52.030;4.586;2022-09-14T05:13:23;-20807.34;;;-144.41;100.00
41684;BME280;27369;52.030;4.586;2022-09-14T05:15:49;-20807.34;;;-144.41;100.00
41684;BME280;27369;52.030;4.586;2022-09-14T05:18:15;-20807.34;;;-144.41;100.00
41684;BME280;27369;52.030;4.586;2022-09-14T05:20:41;-20807.34;;;-144.41;100.00
41684;BME280;27369;52.030;4.586;2022-09-14T05:23:06;-20807.34;;;-144.41;100.00
41684;BME280;27369;52.030;4.586;2022-09-14T05:25:32;-20807.34;;;-144.41;100.00
41684;BME280;27369;52.030;4.586;2022-09-14T05:27:57;-20807.34;;;-144.41;100.00
41684;BME280;27369;52.030;4.586;2022-09-14T05:30:22;-20807.34;;;-144.41;100.00
41684;BME280;27369;52.030;4.586;2022-09-14T05:32:48;-20807.34;;;-144.41;100.00
41684;BME280;27369;52.030;4.586;2022-09-14T05:35:13;-20807.34;;;-144.41;100.00
41684;BME280;27369;52.030;4.586;2022-09-14T05:37:39;-20807.34;;;-144.41;100.00
41684;BME280;27369;52.030;4.586;2022-09-14T05:40:04;-20807.34;;;-144.41;100.00
41684;BME280;27369;52.030;4.586;2022-09-14T05:42:31;-20807.34;;;-144.41;100.00
41684;BME280;27369;52.030;4.586;2022-09-14T05:44:56;-20807.34;;;-144.41;100.00
41684;BME280;27369;52.030;4.586;2022-09-14T05:47:22;-20807.34;;;-144.41;100.00
41684;BME280;27369;52.030;4.586;2022-09-14T05:49:47;-20807.34;;;-144.41;100.00
41684;BME280;27369;52.030;4.586;2022-09-14T05:52:13;-20807.34;;;-144.41;100.00
41684;BME280;27369;52.030;4.586;2022-09-14T05:54:38;-20807.34;;;-144.41;100.00
41684;BME280;27369;52.030;4.586;2022-09-14T05:57:03;-20807.34;;;-144.41;100.00
41684;BME280;27369;52.030;4.586;2022-09-14T05:59:29;-20807.34;;;-144.41;100.00
41684;BME280;27369;52.030;4.586;2022-09-14T06:01:56;-20807.34;;;-144.41;100.00
41684;BME280;27369;52.030;4.586;2022-09-14T06:04:22;-20807.34;;;-144.41;100.00
41684;BME280;27369;52.030;4.586;2022-09-14T06:06:47;-20807.34;;;-144.41;100.00
41684;BME280;27369;52.030;4.586;2022-09-14T06:09:13;-20807.34;;;-144.41;100.00
41684;BME280;27369;52.030;4.586;2022-09-14T06:11:39;-20807.34;;;-144.41;100.00
41684;BME280;27369;52.030;4.586;2022-09-14T06:14:05;-20807.34;;;-144.41;100.00
41684;BME280;27369;52.030;4.586;2022-09-14T06:16:30;-20807.34;;;-144.41;100.00
41684;BME280;27369;52.030;4.586;2022-09-14T06:18:57;-20807.34;;;-144.41;100.00
41684;BME280;27369;52.030;4.586;2022-09-14T06:21:28;-20807.34;;;-144.41;100.00
41684;BME280;27369;52.030;4.586;2022-09-14T06:23:54;-20807.34;;;-144.41;100.00
41684;BME280;27369;52.030;4.586;2022-09-14T06:26:20;-20807.34;;;-144.41;100.00
41684;BME280;27369;52.030;4.586;2022-09-14T06:28:45;-20807.34;;;-144.41;100.00
41684;BME280;27369;52.030;4.586;2022-09-14T06:31:12;-20807.34;;;-144.41;100.00
41684;BME280;27369;52.030;4.586;2022-09-14T06:33:42;-20807.34;;;-144.41;100.00
41684;BME280;27369;52.030;4.586;2022-09-14T06:36:11;-20807.34;;;-144.41;100.00
41684;BME280;27369;52.030;4.586;2022-09-14T06:38:38;-20807.34;;;-144.41;100.00
41684;BME280;27369;52.030;4.586;2022-09-14T06:41:06;-20807.34;;;-144.41;100.00
41684;BME280;27369;52.030;4.586;2022-09-14T06:43:35;-20807.34;;;-144.41;100.00
41684;BME280;27369;52.030;4.586;2022-09-14T06:46:08;-20807.34;;;-144.41;100.00
41684;BME280;27369;52.030;4.586;2022-09-14T06:48:41;-20807.34;;;-144.41;100.00
41684;BME280;27369;52.030;4.586;2022-09-14T06:51:15;-20807.34;;;-144.41;100.00
41684;BME280;27369;52.030;4.586;2022-09-14T06:53:41;-20807.34;;;-144.41;100.00
41684;BME280;27369;52.030;4.586;2022-09-14T06:56:07;-20807.34;;;-144.41;100.00
41684;BME280;27369;52.030;4.586;2022-09-14T06:58:33;-20807.34;;;-144.41;100.00
41684;BME280;27369;52.030;4.586;2022-09-14T07:01:09;-20807.34;;;-144.41;100.00
41684;BME280;27369;52.030;4.586;2022-09-14T07:03:36;-20807.34;;;-144.41;100.00
41684;BME280;27369;52.030;4.586;2022-09-14T07:06:04;-20807.34;;;-144.41;100.00
41684;BME280;27369;52.030;4.586;2022-09-14T07:08:31;-20807.34;;;-144.41;100.00
41684;BME280;27369;52.030;4.586;2022-09-14T07:10:58;-20807.34;;;-144.41;100.00
41684;BME280;27369;52.030;4.586;2022-09-14T07:13:24;-20807.34;;;-144.41;100.00
41684;BME280;27369;52.030;4.586;2022-09-14T07:15:50;-20807.34;;;-144.41;100.00
41684;BME280;27369;52.030;4.586;2022-09-14T07:18:15;-20807.34;;;-144.41;100.00
41684;BME280;27369;52.030;4.586;2022-09-14T07:20:41;-20807.34;;;-144.41;100.00
41684;BME280;27369;52.030;4.586;2022-09-14T07:23:06;-20807.34;;;-144.41;100.00
41684;BME280;27369;52.030;4.586;2022-09-14T07:25:31;-20807.34;;;-144.41;100.00
41684;BME280;27369;52.030;4.586;2022-09-14T07:27:57;-20807.34;;;-144.41;100.00
41684;BME280;27369;52.030;4.586;2022-09-14T07:30:24;-20807.34;;;-144.41;100.00
41684;BME280;27369;52.030;4.586;2022-09-14T07:32:52;-20807.34;;;-144.41;100.00
41684;BME280;27369;52.030;4.586;2022-09-14T07:35:17;-20807.34;;;-144.41;100.00
41684;BME280;27369;52.030;4.586;2022-09-14T07:37:43;-20807.34;;;-144.41;100.00
41684;BME280;27369;52.030;4.586;2022-09-14T07:40:08;-20807.34;;;-144.41;100.00
41684;BME280;27369;52.030;4.586;2022-09-14T07:42:35;-20807.34;;;-144.41;100.00
41684;BME280;27369;52.030;4.586;2022-09-14T07:45:05;-20807.34;;;-144.41;100.00
41684;BME280;27369;52.030;4.586;2022-09-14T07:47:30;-20807.34;;;-144.41;100.00
41684;BME280;27369;52.030;4.586;2022-09-14T07:49:56;-20807.34;;;-144.41;100.00
41684;BME280;27369;52.030;4.586;2022-09-14T07:52:21;-20807.34;;;-144.41;100.00
41684;BME280;27369;52.030;4.586;2022-09-14T07:54:47;-20807.34;;;-144.41;100.00
41684;BME280;27369;52.030;4.586;2022-09-14T07:57:12;-20807.34;;;-144.41;100.00
41684;BME280;27369;52.030;4.586;2022-09-14T07:59:37;-20807.34;;;-144.41;100.00
41684;BME280;27369;52.030;4.586;2022-09-14T08:02:05;-20807.34;;;-144.41;100.00
41684;BME280;27369;52.030;4.586;2022-09-14T08:04:33;-20807.34;;;-144.41;100.00
41684;BME280;27369;52.030;4.586;2022-09-14T08:06:59;-20807.34;;;-144.41;100.00
41684;BME280;27369;52.030;4.586;2022-09-14T08:09:26;-20807.34;;;-144.41;100.00
41684;BME280;27369;52.030;4.586;2022-09-14T08:11:51;-20807.34;;;-144.41;100.00
41684;BME280;27369;52.030;4.586;2022-09-14T08:14:17;-20807.34;;;-144.41;100.00
41684;BME280;27369;52.030;4.586;2022-09-14T08:16:42;-20807.34;;;-144.41;100.00
41684;BME280;27369;52.030;4.586;2022-09-14T08:19:13;-20807.34;;;-144.41;100.00
41684;BME280;27369;52.030;4.586;2022-09-14T08:21:39;-20807.34;;;-144.41;100.00
41684;BME280;27369;52.030;4.586;2022-09-14T08:24:04;-20807.34;;;-144.41;100.00
41684;BME280;27369;52.030;4.586;2022-09-14T08:26:30;-20807.34;;;-144.41;100.00
41684;BME280;27369;52.030;4.586;2022-09-14T08:28:56;-20807.34;;;-144.41;100.00
41684;BME280;27369;52.030;4.586;2022-09-14T08:31:25;-20807.34;;;-144.41;100.00
41684;BME280;27369;52.030;4.586;2022-09-14T08:34:01;-20807.34;;;-144.41;100.00
41684;BME280;27369;52.030;4.586;2022-09-14T08:36:30;-20807.34;;;-144.41;100.00
41684;BME280;27369;52.030;4.586;2022-09-14T08:38:56;-20807.34;;;-144.41;100.00
41684;BME280;27369;52.030;4.586;2022-09-14T08:41:50;-20807.34;;;-144.41;100.00
41684;BME280;27369;52.030;4.586;2022-09-14T08:44:29;-20807.34;;;-144.41;100.00
41684;BME280;27369;52.030;4.586;2022-09-14T08:47:02;-20807.34;;;-144.41;100.00
41684;BME280;27369;52.030;4.586;2022-09-14T08:52:32;-20807.34;;;-144.41;100.00
41684;BME280;27369;52.030;4.586;2022-09-14T08:55:00;-20807.34;;;-144.41;100.00
41684;BME280;27369;52.030;4.586;2022-09-14T08:57:27;-20807.34;;;-144.41;100.00
41684;BME280;27369;52.030;4.586;2022-09-14T09:00:09;-20807.34;;;-144.41;100.00
41684;BME280;27369;52.030;4.586;2022-09-14T09:02:46;-20807.34;;;-144.41;100.00
41684;BME280;27369;52.030;4.586;2022-09-14T09:08:32;-20807.34;;;-144.41;100.00
41684;BME280;27369;52.030;4.586;2022-09-14T09:11:00;-20807.34;;;-144.41;100.00
41684;BME280;27369;52.030;4.586;2022-09-14T09:13:32;-20807.34;;;-144.41;100.00
41684;BME280;27369;52.030;4.586;2022-09-14T09:16:03;-20807.34;;;-144.41;100.00
41684;BME280;27369;52.030;4.586;2022-09-14T09:21:02;-20807.34;;;-144.41;100.00
41684;BME280;27369;52.030;4.586;2022-09-14T09:23:29;-20807.34;;;-144.41;100.00
41684;BME280;27369;52.030;4.586;2022-09-14T09:26:05;-20807.34;;;-144.41;100.00
41684;BME280;27369;52.030;4.586;2022-09-14T09:28:32;-20807.34;;;-144.41;100.00
41684;BME280;27369;52.030;4.586;2022-09-14T09:31:01;-20807.34;;;-144.41;100.00
41684;BME280;27369;52.030;4.586;2022-09-14T09:33:29;-20807.34;;;-144.41;100.00
41684;BME280;27369;52.030;4.586;2022-09-14T09:35:55;-20807.34;;;-144.41;100.00
41684;BME280;27369;52.030;4.586;2022-09-14T09:38:23;-20807.34;;;-144.41;100.00
41684;BME280;27369;52.030;4.586;2022-09-14T09:41:01;-20807.34;;;-144.41;100.00
41684;BME280;27369;52.030;4.586;2022-09-14T09:43:29;-20807.34;;;-144.41;100.00
41684;BME280;27369;52.030;4.586;2022-09-14T09:46:06;-20807.34;;;-144.41;100.00
41684;BME280;27369;52.030;4.586;2022-09-14T09:51:14;-20807.34;;;-144.41;100.00
41684;BME280;27369;52.030;4.586;2022-09-14T09:53:51;-20807.34;;;-144.41;100.00
41684;BME280;27369;52.030;4.586;2022-09-14T09:56:22;-20807.34;;;-144.41;100.00
41684;BME280;27369;52.030;4.586;2022-09-14T09:58:48;-20807.34;;;-144.41;100.00
41684;BME280;27369;52.030;4.586;2022-09-14T10:01:28;-20807.34;;;-144.41;100.00
41684;BME280;27369;52.030;4.586;2022-09-14T10:06:43;-20807.34;;;-144.41;100.00
41684;BME280;27369;52.030;4.586;2022-09-14T10:09:17;-20807.34;;;-144.41;100.00
41684;BME280;27369;52.030;4.586;2022-09-14T10:11:45;-20807.34;;;-144.41;100.00
41684;BME280;27369;52.030;4.586;2022-09-14T10:14:37;-20807.34;;;-144.41;100.00
41684;BME280;27369;52.030;4.586;2022-09-14T10:17:16;-20807.34;;;-144.41;100.00
41684;BME280;27369;52.030;4.586;2022-09-14T10:19:51;-20807.34;;;-144.41;100.00
41684;BME280;27369;52.030;4.586;2022-09-14T10:22:28;-20807.34;;;-144.41;100.00
41684;BME280;27369;52.030;4.586;2022-09-14T10:25:24;-20807.34;;;-144.41;100.00
41684;BME280;27369;52.030;4.586;2022-09-14T10:27:57;-20807.34;;;-144.41;100.00
41684;BME280;27369;52.030;4.586;2022-09-14T10:30:25;-20807.34;;;-144.41;100.00
41684;BME280;27369;52.030;4.586;2022-09-14T10:33:03;-20807.34;;;-144.41;100.00
41684;BME280;27369;52.030;4.586;2022-09-14T10:38:51;-20807.34;;;-144.41;100.00
41684;BME280;27369;52.030;4.586;2022-09-14T10:41:24;-20807.34;;;-144.41;100.00
41684;BME280;27369;52.030;4.586;2022-09-14T10:46:40;-20807.34;;;-144.41;100.00
41684;BME280;27369;52.030;4.586;2022-09-14T11:00:02;-20807.34;;;-144.41;100.00
41684;BME280;27369;52.030;4.586;2022-09-14T11:08:11;-20807.34;;;-144.41;100.00
41684;BME280;27369;52.030;4.586;2022-09-14T11:13:38;-20807.34;;;-144.41;100.00
41684;BME280;27369;52.030;4.586;2022-09-14T11:24:38;-20807.34;;;-144.41;100.00
41684;BME280;27369;52.030;4.586;2022-09-14T11:29:43;-20807.34;;;-144.41;100.00
41684;BME280;27369;52.030;4.586;2022-09-14T11:32:29;-20807.34;;;-144.41;100.00
41684;BME280;27369;52.030;4.586;2022-09-14T11:35:23;-20807.34;;;-144.41;100.00
41684;BME280;27369;52.030;4.586;2022-09-14T11:37:56;-20807.34;;;-144.41;100.00
41684;BME280;27369;52.030;4.586;2022-09-14T11:40:45;-20807.34;;;-144.41;100.00
41684;BME280;27369;52.030;4.586;2022-09-14T11:43:19;-20807.34;;;-144.41;100.00
41684;BME280;27369;52.030;4.586;2022-09-14T11:45:54;-20807.34;;;-144.41;100.00
41684;BME280;27369;52.030;4.586;2022-09-14T11:51:27;-20807.34;;;-144.41;100.00
41684;BME280;27369;52.030;4.586;2022-09-14T11:53:56;-20807.34;;;-144.41;100.00
41684;BME280;27369;52.030;4.586;2022-09-14T11:56:31;-20807.34;;;-144.41;100.00
41684;BME280;27369;52.030;4.586;2022-09-14T11:59:03;-20807.34;;;-144.41;100.00
41684;BME280;27369;52.030;4.586;2022-09-14T12:01:34;-20807.34;;;-144.41;100.00
41684;BME280;27369;52.030;4.586;2022-09-14T12:04:05;-20807.34;;;-144.41;100.00
41684;BME280;27369;52.030;4.586;2022-09-14T12:09:37;-20807.34;;;-144.41;100.00
41684;BME280;27369;52.030;4.586;2022-09-14T12:11:58;-20807.34;;;-144.41;100.00
41684;BME280;27369;52.030;4.586;2022-09-14T12:17:24;-20807.34;;;-144.41;100.00
41684;BME280;27369;52.030;4.586;2022-09-14T12:19:51;-20807.34;;;-144.41;100.00
41684;BME280;27369;52.030;4.586;2022-09-14T12:22:35;-20807.34;;;-144.41;100.00
41684;BME280;27369;52.030;4.586;2022-09-14T12:27:32;-20807.34;;;-144.41;100.00
41684;BME280;27369;52.030;4.586;2022-09-14T12:29:59;-20807.34;;;-144.41;100.00
41684;BME280;27369;52.030;4.586;2022-09-14T12:32:45;-20807.34;;;-144.41;100.00
41684;BME280;27369;52.030;4.586;2022-09-14T12:41:02;-20807.34;;;-144.41;100.00
41684;BME280;27369;52.030;4.586;2022-09-14T12:46:30;-20807.34;;;-144.41;100.00
41684;BME280;27369;52.030;4.586;2022-09-14T12:48:58;-20807.34;;;-144.41;100.00
41684;BME280;27369;52.030;4.586;2022-09-14T12:59:19;-19313.44;;;-144.41;100.00
41684;BME280;27369;52.030;4.586;2022-09-14T13:04:53;-18069.31;;;-144.41;100.00
41684;BME280;27369;52.030;4.586;2022-09-14T13:07:21;-17322.66;;;-144.41;100.00
41684;BME280;27369;52.030;4.586;2022-09-14T13:09:49;-16575.81;;;-144.41;100.00
41684;BME280;27369;52.030;4.586;2022-09-14T13:12:25;-15828.84;;;-144.41;100.00
41684;BME280;27369;52.030;4.586;2022-09-14T13:15:02;-15330.78;;;-144.41;100.00
41684;BME280;27369;52.030;4.586;2022-09-14T13:17:29;-14334.47;;;-144.41;100.00
41684;BME280;27369;52.030;4.586;2022-09-14T13:20:01;-13587.06;;;-144.41;100.00
41684;BME280;27369;52.030;4.586;2022-09-14T13:22:30;-14085.38;;;-144.41;100.00
41684;BME280;27369;52.030;4.586;2022-09-14T13:24:58;-13088.72;;;-144.41;100.00
41684;BME280;27369;52.030;4.586;2022-09-14T13:27:28;-11593.28;;;-144.41;100.00
41684;BME280;27369;52.030;4.586;2022-09-14T13:32:41;-8351.16;;;-144.41;100.00
41684;BME280;27369;52.030;4.586;2022-09-14T13:35:15;-7103.44;;;-144.41;100.00
41684;BME280;27369;52.030;4.586;2022-09-14T13:37:42;-6105.00;;;-144.41;100.00
41684;BME280;27369;52.030;4.586;2022-09-14T13:40:07;-4107.31;;;-144.41;100.00
41684;BME280;27369;52.030;4.586;2022-09-14T13:42:33;-858.84;;;-144.41;100.00
41684;BME280;27369;52.030;4.586;2022-09-14T13:44:58;-108.81;;;-144.41;100.00
41684;BME280;27369;52.030;4.586;2022-09-14T13:47:24;1391.69;;;-144.41;100.00
41684;BME280;27369;52.030;4.586;2022-09-14T13:49:52;4394.44;;;-144.41;100.00
41684;BME280;27369;52.030;4.586;2022-09-14T13:54:54;6898.53;;;-144.41;100.00
41684;BME280;27369;52.030;4.586;2022-09-14T13:57:22;10156.28;;;-144.41;100.00
41684;BME280;27369;52.030;4.586;2022-09-14T14:02:59;11911.59;;;-144.41;100.00
41684;BME280;27369;52.030;4.586;2022-09-14T14:05:33;11159.22;;;-144.41;100.00
41684;BME280;27369;52.030;4.586;2022-09-14T14:08:01;10657.72;;;-144.41;100.00
41684;BME280;27369;52.030;4.586;2022-09-14T14:10:32;11660.78;;;-144.41;100.00
41684;BME280;27369;52.030;4.586;2022-09-14T14:12:59;10407.00;;;-144.41;100.00
41684;BME280;27369;52.030;4.586;2022-09-14T14:17:51;15675.63;;;-144.41;100.00
41684;BME280;27369;52.030;4.586;2022-09-14T14:22:57;22963.13;;;-144.41;100.00
41684;BME280;27369;52.030;4.586;2022-09-14T14:25:31;27493.25;;;-144.41;100.00
41684;BME280;27369;52.030;4.586;2022-09-14T14:28:02;29004.47;;;-144.41;100.00
41684;BME280;27369;52.030;4.586;2022-09-14T14:30:28;32280.78;;;-144.41;100.00
41684;BME280;27369;52.030;4.586;2022-09-14T14:32:56;34298.31;;;-144.41;100.00